createdAt,value
2023-01-06T00:01:35.259Z,10.18
2023-01-06T00:04:03.171Z,10.18
2023-01-06T00:06:32.033Z,10.16
2023-01-06T00:09:00.817Z,10.16
2023-01-06T00:11:52.909Z,10.14
2023-01-06T00:14:21.093Z,10.12
2023-01-06T00:16:49.955Z,10.11
2023-01-06T00:19:19.080Z,10.12
2023-01-06T00:21:47.299Z,10.10
2023-01-06T00:24:16.223Z,10.08
2023-01-06T00:26:43.717Z,10.07
2023-01-06T00:29:11.756Z,10.05
2023-01-06T00:31:39.318Z,10.06
2023-01-06T00:34:08.577Z,10.05
2023-01-06T00:36:37.045Z,10.04
2023-01-06T00:39:04.664Z,10.06
2023-01-06T00:41:52.918Z,10.03
2023-01-06T00:44:21.279Z,10.02
2023-01-06T00:46:48.852Z,10.00
2023-01-06T00:49:19.590Z,9.99
2023-01-06T00:51:47.198Z,9.99
2023-01-06T00:54:15.575Z,10.00
2023-01-06T00:56:44.287Z,9.99
2023-01-06T00:59:13.729Z,10.01
2023-01-06T01:01:41.913Z,9.97
2023-01-06T01:04:10.128Z,9.97
2023-01-06T01:06:39.568Z,10.01
2023-01-06T01:09:07.754Z,9.98
2023-01-06T01:11:54.969Z,9.98
2023-01-06T01:14:23.504Z,9.99
2023-01-06T01:16:51.010Z,9.98
2023-01-06T01:19:19.188Z,10.01
2023-01-06T01:21:48.139Z,10.03
2023-01-06T01:24:16.082Z,10.07
2023-01-06T01:26:43.709Z,10.04
2023-01-06T01:29:16.201Z,10.11
2023-01-06T01:31:44.019Z,10.08
2023-01-06T01:34:12.346Z,10.06
2023-01-06T01:36:41.000Z,10.08
2023-01-06T01:39:10.492Z,10.09
2023-01-06T01:41:38.929Z,10.10
2023-01-06T01:44:22.013Z,10.10
2023-01-06T01:46:50.921Z,10.16
2023-01-06T01:49:20.287Z,10.15
2023-01-06T01:52:13.647Z,10.18
2023-01-06T01:54:43.581Z,10.17
2023-01-06T01:57:13.157Z,10.18
2023-01-06T01:59:43.065Z,10.21
2023-01-06T02:02:12.981Z,10.21
2023-01-06T02:04:42.579Z,10.24
2023-01-06T02:07:12.033Z,10.23
2023-01-06T02:09:42.865Z,10.27
2023-01-06T02:12:14.663Z,10.25
2023-01-06T02:14:42.908Z,10.25
2023-01-06T02:17:21.331Z,10.25
2023-01-06T02:20:07.882Z,10.30
2023-01-06T02:22:46.327Z,10.27
2023-01-06T02:25:35.038Z,10.28
2023-01-06T02:28:17.838Z,10.26
2023-01-06T02:31:33.700Z,10.33
2023-01-06T02:34:08.033Z,10.28
2023-01-06T02:36:39.016Z,10.36
2023-01-06T02:39:16.066Z,10.30
2023-01-06T02:41:47.931Z,10.28
2023-01-06T02:44:21.153Z,10.29
2023-01-06T02:46:57.842Z,10.30
2023-01-06T02:49:27.627Z,10.24
2023-01-06T02:51:59.346Z,10.26
2023-01-06T02:54:32.912Z,10.25
2023-01-06T02:57:05.127Z,10.28
2023-01-06T02:59:39.932Z,10.28
2023-01-06T03:02:12.091Z,10.32
2023-01-06T03:04:42.556Z,10.26
2023-01-06T03:07:11.026Z,10.28
2023-01-06T03:09:40.423Z,10.26
2023-01-06T03:12:10.043Z,10.26
2023-01-06T03:14:41.016Z,10.24
2023-01-06T03:17:34.508Z,10.27
2023-01-06T03:20:03.779Z,10.25
2023-01-06T03:22:34.642Z,10.26
2023-01-06T03:25:03.966Z,10.25
2023-01-06T03:27:31.581Z,10.25
2023-01-06T03:30:02.924Z,10.26
2023-01-06T03:32:36.391Z,10.25
2023-01-06T03:35:12.456Z,10.23
2023-01-06T03:37:45.432Z,10.23
2023-01-06T03:40:16.850Z,10.27
2023-01-06T03:43:04.497Z,10.27
2023-01-06T03:45:40.063Z,10.31
2023-01-06T03:48:14.182Z,10.24
2023-01-06T03:50:46.946Z,10.25
2023-01-06T03:53:23.738Z,10.20
2023-01-06T03:55:54.926Z,10.20
2023-01-06T03:58:24.941Z,10.21
2023-01-06T04:00:53.587Z,10.25
2023-01-06T04:03:25.272Z,10.23
2023-01-06T04:05:56.903Z,10.28
2023-01-06T04:08:24.459Z,10.29
2023-01-06T04:10:52.563Z,10.27
2023-01-06T04:13:20.202Z,10.25
2023-01-06T04:15:48.899Z,10.23
2023-01-06T04:18:16.432Z,10.23
2023-01-06T04:20:46.100Z,10.22
2023-01-06T04:23:20.740Z,10.21
2023-01-06T04:25:51.935Z,10.26
2023-01-06T04:28:27.338Z,10.21
2023-01-06T04:30:59.154Z,10.25
2023-01-06T04:33:27.997Z,10.27
2023-01-06T04:36:05.969Z,10.37
2023-01-06T04:38:34.625Z,10.28
2023-01-06T04:41:02.509Z,10.30
2023-01-06T04:43:31.049Z,10.27
2023-01-06T04:45:59.589Z,10.32
2023-01-06T04:48:27.621Z,10.31
2023-01-06T04:51:02.504Z,10.31
2023-01-06T04:53:30.344Z,10.27
2023-01-06T04:56:02.801Z,10.29
2023-01-06T04:58:30.372Z,10.28
2023-01-06T05:01:00.442Z,10.35
2023-01-06T05:03:29.445Z,10.36
2023-01-06T05:05:57.922Z,10.28
2023-01-06T05:08:28.049Z,10.38
2023-01-06T05:10:59.896Z,10.32
2023-01-06T05:13:28.324Z,10.28
2023-01-06T05:15:56.923Z,10.29
2023-01-06T05:18:25.030Z,10.33
2023-01-06T05:21:18.157Z,10.28
2023-01-06T05:23:47.217Z,10.34
2023-01-06T05:29:09.623Z,10.27
2023-01-06T05:31:37.289Z,10.32
2023-01-06T05:34:05.940Z,10.31
2023-01-06T05:36:34.501Z,10.31
2023-01-06T05:39:04.083Z,10.32
2023-01-06T05:41:32.051Z,10.35
2023-01-06T05:43:59.954Z,10.35
2023-01-06T05:46:27.444Z,10.38
2023-01-06T05:48:55.333Z,10.40
2023-01-06T05:51:22.937Z,10.37
2023-01-06T05:53:51.047Z,10.33
2023-01-06T05:56:45.163Z,10.31
2023-01-06T05:59:13.382Z,10.34
2023-01-06T06:01:41.368Z,10.38
2023-01-06T06:04:09.136Z,10.30
2023-01-06T06:06:36.770Z,10.32
2023-01-06T06:09:05.775Z,10.38
2023-01-06T06:11:57.795Z,10.39
2023-01-06T06:14:27.992Z,10.37
2023-01-06T06:16:56.527Z,10.43
2023-01-06T06:19:24.316Z,10.40
2023-01-06T06:21:51.992Z,10.36
2023-01-06T06:24:19.469Z,10.47
2023-01-06T06:27:12.764Z,10.49
2023-01-06T06:29:41.723Z,10.40
2023-01-06T06:32:09.180Z,10.39
2023-01-06T06:34:40.286Z,10.38
2023-01-06T06:37:10.805Z,10.38
2023-01-06T06:39:41.217Z,10.47
2023-01-06T06:42:09.032Z,10.53
2023-01-06T06:44:37.199Z,10.46
2023-01-06T06:47:08.074Z,10.49
2023-01-06T06:49:35.914Z,10.51
2023-01-06T06:52:05.396Z,10.50
2023-01-06T06:54:35.177Z,10.50
2023-01-06T06:57:27.960Z,10.45
2023-01-06T06:59:59.935Z,10.46
2023-01-06T07:02:30.738Z,10.49
2023-01-06T07:04:58.596Z,10.46
2023-01-06T07:07:26.100Z,10.55
2023-01-06T07:09:54.301Z,10.50
2023-01-06T07:12:23.946Z,10.54
2023-01-06T07:14:51.446Z,10.47
2023-01-06T07:17:19.030Z,10.49
2023-01-06T07:19:48.856Z,10.53
2023-01-06T07:22:16.388Z,10.48
2023-01-06T07:24:45.234Z,10.55
2023-01-06T07:27:13.058Z,10.56
2023-01-06T07:29:40.527Z,10.50
2023-01-06T07:32:10.210Z,10.41
2023-01-06T07:34:38.063Z,10.59
2023-01-06T07:37:08.919Z,10.48
2023-01-06T07:39:36.455Z,10.47
2023-01-06T07:42:04.934Z,10.54
2023-01-06T07:44:57.799Z,10.53
2023-01-06T07:47:27.957Z,10.52
2023-01-06T07:49:55.468Z,10.49
2023-01-06T07:52:24.691Z,10.52
2023-01-06T07:54:52.232Z,10.51
2023-01-06T07:57:19.710Z,10.57
2023-01-06T07:59:47.328Z,10.54
2023-01-06T08:02:14.877Z,10.47
2023-01-06T08:04:42.373Z,10.57
2023-01-06T08:07:10.155Z,10.57
2023-01-06T08:09:39.917Z,10.54
2023-01-06T08:12:12.013Z,10.58
2023-01-06T08:14:39.518Z,10.53
2023-01-06T08:17:07.357Z,10.61
2023-01-06T08:19:34.911Z,10.60
2023-01-06T08:22:03.389Z,10.55
2023-01-06T08:24:32.637Z,10.55
2023-01-06T08:27:01.723Z,10.55
2023-01-06T08:29:29.254Z,10.66
2023-01-06T08:32:10.004Z,10.59
2023-01-06T08:34:38.491Z,10.59
2023-01-06T08:37:06.231Z,10.65
2023-01-06T08:39:33.778Z,10.70
2023-01-06T08:42:26.725Z,10.67
2023-01-06T08:44:55.608Z,10.68
2023-01-06T08:47:23.352Z,10.69
2023-01-06T08:49:50.845Z,10.65
2023-01-06T08:52:18.373Z,10.68
2023-01-06T08:54:45.859Z,10.73
2023-01-06T08:57:15.740Z,10.69
2023-01-06T08:59:43.305Z,10.68
2023-01-06T09:02:12.410Z,10.69
2023-01-06T09:04:41.366Z,10.71
2023-01-06T09:07:08.922Z,10.69
2023-01-06T09:09:38.956Z,10.67
2023-01-06T09:12:08.140Z,10.68
2023-01-06T09:14:35.650Z,10.65
2023-01-06T09:17:03.962Z,10.68
2023-01-06T09:19:33.732Z,10.66
2023-01-06T09:22:01.283Z,10.62
2023-01-06T09:24:28.775Z,10.70
2023-01-06T09:26:56.360Z,10.78
2023-01-06T09:29:23.887Z,10.68
2023-01-06T09:31:55.054Z,10.72
2023-01-06T09:34:22.569Z,10.74
2023-01-06T09:36:52.103Z,10.67
2023-01-06T09:39:19.739Z,10.71
2023-01-06T09:41:55.788Z,10.61
2023-01-06T09:44:26.418Z,10.70
2023-01-06T09:46:54.214Z,10.57
2023-01-06T09:49:25.815Z,10.55
2023-01-06T09:54:54.651Z,10.58
2023-01-06T09:57:23.449Z,10.66
2023-01-06T09:59:53.946Z,10.62
2023-01-06T10:02:24.029Z,10.61
2023-01-06T10:04:51.943Z,10.65
2023-01-06T10:07:25.275Z,10.71
2023-01-06T10:12:58.968Z,10.70
2023-01-06T10:15:33.419Z,10.68
2023-01-06T10:18:07.207Z,10.74
2023-01-06T10:20:47.712Z,10.77
2023-01-06T10:23:25.231Z,10.79
2023-01-06T10:25:54.960Z,10.91
2023-01-06T10:28:29.462Z,10.85
2023-01-06T10:31:00.987Z,10.79
2023-01-06T10:33:34.508Z,10.94
2023-01-06T10:36:02.087Z,10.90
2023-01-06T10:38:34.901Z,10.93
2023-01-06T10:41:12.948Z,10.90
2023-01-06T10:43:41.288Z,10.93
2023-01-06T10:46:09.726Z,10.93
2023-01-06T10:48:39.394Z,10.91
2023-01-06T10:51:21.058Z,11.01
2023-01-06T10:53:53.651Z,11.01
2023-01-06T10:56:21.273Z,11.03
2023-01-06T10:58:50.948Z,11.13
2023-01-06T11:01:24.275Z,11.22
2023-01-06T11:04:06.626Z,11.18
2023-01-06T11:06:35.093Z,11.31
2023-01-06T11:09:09.844Z,11.37
2023-01-06T11:11:46.816Z,11.41
2023-01-06T11:14:39.982Z,11.42
2023-01-06T11:17:10.568Z,11.58
2023-01-06T11:19:40.183Z,11.72
2023-01-06T11:22:27.696Z,11.86
2023-01-06T11:24:59.935Z,11.91
2023-01-06T11:27:28.298Z,11.97
2023-01-06T11:29:57.955Z,11.95
2023-01-06T11:32:27.646Z,12.09
2023-01-06T11:34:56.272Z,12.06
2023-01-06T11:37:31.367Z,12.03
2023-01-06T11:40:10.316Z,12.14
2023-01-06T11:45:07.705Z,12.21
2023-01-06T11:47:35.348Z,12.18
2023-01-06T11:50:05.118Z,12.11
2023-01-06T11:52:34.073Z,12.07
2023-01-06T11:55:15.060Z,12.11
2023-01-06T11:57:43.288Z,12.18
2023-01-06T12:00:23.968Z,12.14
2023-01-06T12:02:54.090Z,12.03
2023-01-06T12:05:27.044Z,12.01
2023-01-06T12:07:57.957Z,12.11
2023-01-06T12:10:31.602Z,12.06
2023-01-06T12:13:00.964Z,12.14
2023-01-06T12:15:30.338Z,12.09
2023-01-06T12:18:02.470Z,12.06
2023-01-06T12:20:32.089Z,12.05
2023-01-06T12:23:02.958Z,12.04
2023-01-06T12:25:34.095Z,12.07
2023-01-06T12:28:05.944Z,12.11
2023-01-06T12:30:35.526Z,12.15
2023-01-06T12:33:06.970Z,12.07
2023-01-06T12:35:37.522Z,12.07
2023-01-06T12:38:10.965Z,12.15
2023-01-06T12:40:43.657Z,12.09
2023-01-06T12:43:16.041Z,12.23
2023-01-06T12:45:56.679Z,12.22
2023-01-06T12:48:27.960Z,12.18
2023-01-06T12:51:23.906Z,12.12
2023-01-06T12:53:56.363Z,12.15
2023-01-06T12:56:41.085Z,12.12
2023-01-06T12:59:13.251Z,12.20
2023-01-06T13:02:13.333Z,12.21
2023-01-06T13:04:53.436Z,12.28
2023-01-06T13:07:30.477Z,12.27
2023-01-06T13:10:00.418Z,12.22
2023-01-06T13:12:36.503Z,12.18
2023-01-06T13:15:07.159Z,12.27
2023-01-06T13:17:37.779Z,12.18
2023-01-06T13:20:08.520Z,12.29
2023-01-06T13:22:43.787Z,12.21
2023-01-06T13:25:28.589Z,12.15
2023-01-06T13:28:02.431Z,12.20
2023-01-06T13:30:40.010Z,12.16
2023-01-06T13:33:18.195Z,12.09
2023-01-06T13:36:00.985Z,12.15
2023-01-06T13:38:43.123Z,12.08
2023-01-06T13:41:15.816Z,12.06
2023-01-06T13:43:46.297Z,12.04
2023-01-06T13:46:16.428Z,11.97
2023-01-06T13:48:45.110Z,11.97
2023-01-06T13:51:13.969Z,11.96
2023-01-06T13:53:42.723Z,11.98
2023-01-06T13:56:23.985Z,11.91
2023-01-06T13:59:13.909Z,11.91
2023-01-06T14:01:43.505Z,11.86
2023-01-06T14:04:29.819Z,11.83
2023-01-06T14:06:57.967Z,11.84
2023-01-06T14:09:25.703Z,11.83
2023-01-06T14:11:54.139Z,11.85
2023-01-06T14:14:26.965Z,11.84
2023-01-06T14:16:57.303Z,11.84
2023-01-06T14:19:27.933Z,11.82
2023-01-06T14:21:57.082Z,11.85
2023-01-06T14:24:28.366Z,11.85
2023-01-06T14:26:58.355Z,11.76
2023-01-06T14:29:44.911Z,11.78
2023-01-06T14:32:34.143Z,11.73
2023-01-06T14:35:03.351Z,11.80
2023-01-06T14:37:43.622Z,11.75
2023-01-06T14:40:19.214Z,11.79
2023-01-06T14:42:47.343Z,11.79
2023-01-06T14:45:18.240Z,11.78
2023-01-06T14:47:48.729Z,11.69
2023-01-06T14:50:18.705Z,11.63
2023-01-06T14:52:49.821Z,11.62
2023-01-06T14:55:19.021Z,11.59
2023-01-06T14:57:50.522Z,11.55
2023-01-06T15:00:20.612Z,11.56
2023-01-06T15:05:43.195Z,11.55
2023-01-06T15:08:16.976Z,11.48
2023-01-06T15:10:45.709Z,11.43
2023-01-06T15:13:21.982Z,11.37
2023-01-06T15:15:53.434Z,11.34
2023-01-06T15:18:22.975Z,11.29
2023-01-06T15:20:50.652Z,11.24
2023-01-06T15:23:19.813Z,11.18
2023-01-06T15:25:48.932Z,11.17
2023-01-06T15:28:24.740Z,11.11
2023-01-06T15:30:52.361Z,11.05
2023-01-06T15:33:21.131Z,11.00
2023-01-06T15:35:50.940Z,10.96
2023-01-06T15:38:24.657Z,10.93
2023-01-06T15:40:52.726Z,10.86
2023-01-06T15:43:27.142Z,10.78
2023-01-06T15:45:59.001Z,10.75
2023-01-06T15:48:29.095Z,10.71
2023-01-06T15:50:59.771Z,10.65
2023-01-06T15:53:32.455Z,10.60
2023-01-06T15:56:02.213Z,10.56
2023-01-06T15:58:31.425Z,10.58
2023-01-06T16:01:00.969Z,10.49
2023-01-06T16:03:30.100Z,10.41
2023-01-06T16:06:11.141Z,10.39
2023-01-06T16:08:41.131Z,10.37
2023-01-06T16:11:40.659Z,10.31
2023-01-06T16:14:23.047Z,10.27
2023-01-06T16:16:52.011Z,10.25
2023-01-06T16:19:21.283Z,10.23
2023-01-06T16:21:53.375Z,10.20
2023-01-06T16:24:23.078Z,10.16
2023-01-06T16:26:52.590Z,10.17
2023-01-06T16:29:26.198Z,10.09
2023-01-06T16:31:55.350Z,10.04
2023-01-06T16:34:28.380Z,10.02
2023-01-06T16:36:58.384Z,9.98
2023-01-06T16:39:26.359Z,9.96
2023-01-06T16:42:32.711Z,9.90
2023-01-06T16:45:01.248Z,9.87
2023-01-06T16:47:29.150Z,9.83
2023-01-06T16:49:57.695Z,9.82
2023-01-06T16:52:28.997Z,9.80
2023-01-06T16:54:58.292Z,9.81
2023-01-06T16:57:26.143Z,9.84
2023-01-06T16:59:53.828Z,9.81
2023-01-06T17:02:21.440Z,9.80
2023-01-06T17:04:49.318Z,9.78
2023-01-06T17:07:17.133Z,9.79
2023-01-06T17:09:46.966Z,9.78
2023-01-06T17:12:36.158Z,9.78
2023-01-06T17:15:05.771Z,9.77
2023-01-06T17:17:34.010Z,9.76
2023-01-06T17:20:02.380Z,9.78
2023-01-06T17:22:31.101Z,9.81
2023-01-06T17:25:02.831Z,9.79
2023-01-06T17:27:31.001Z,9.79
2023-01-06T17:30:01.245Z,9.80
2023-01-06T17:32:30.920Z,9.80
2023-01-06T17:34:58.644Z,9.78
2023-01-06T17:37:30.039Z,9.76
2023-01-06T17:39:58.001Z,9.78
2023-01-06T17:42:30.581Z,9.81
2023-01-06T17:44:59.507Z,9.77
2023-01-06T17:47:29.048Z,9.75
2023-01-06T17:49:57.621Z,9.77
2023-01-06T17:52:30.527Z,9.77
2023-01-06T17:55:20.005Z,9.81
2023-01-06T17:57:50.006Z,9.80
2023-01-06T18:00:23.288Z,9.80
2023-01-06T18:02:54.188Z,9.85
2023-01-06T18:05:41.409Z,9.85
2023-01-06T18:08:13.259Z,9.87
2023-01-06T18:10:43.231Z,9.88
2023-01-06T18:13:14.991Z,9.89
2023-01-06T18:15:42.904Z,9.93
2023-01-06T18:18:17.284Z,9.94
2023-01-06T18:20:46.669Z,9.93
2023-01-06T18:23:19.580Z,9.97
2023-01-06T18:25:47.128Z,9.97
2023-01-06T18:28:18.389Z,9.96
2023-01-06T18:30:46.719Z,9.97
2023-01-06T18:33:18.122Z,9.96
2023-01-06T18:35:46.804Z,9.95
2023-01-06T18:38:14.362Z,9.95
2023-01-06T18:40:42.552Z,9.93
2023-01-06T18:43:20.265Z,9.93
2023-01-06T18:45:51.515Z,9.94
2023-01-06T18:48:24.922Z,9.97
2023-01-06T18:50:53.120Z,9.99
2023-01-06T18:53:26.074Z,10.03
2023-01-06T18:55:55.114Z,10.01
2023-01-06T18:58:33.323Z,10.02
2023-01-06T19:01:02.128Z,10.05
2023-01-06T19:03:31.283Z,10.07
2023-01-06T19:06:07.538Z,10.11
2023-01-06T19:08:38.142Z,10.06
2023-01-06T19:11:12.594Z,10.08
2023-01-06T19:13:41.487Z,10.07
2023-01-06T19:16:23.303Z,10.09
2023-01-06T19:18:50.880Z,10.10
2023-01-06T19:21:18.521Z,10.12
2023-01-06T19:23:46.132Z,10.13
2023-01-06T19:26:19.844Z,10.09
2023-01-06T19:28:53.117Z,10.12
2023-01-06T19:31:23.291Z,10.12
2023-01-06T19:33:53.883Z,10.15
2023-01-06T19:36:38.612Z,10.16
2023-01-06T19:39:16.299Z,10.20
2023-01-06T19:41:44.365Z,10.21
2023-01-06T19:44:14.289Z,10.19
2023-01-06T19:46:42.939Z,10.23
2023-01-06T19:49:20.558Z,10.22
2023-01-06T19:51:49.336Z,10.23
2023-01-06T19:54:27.400Z,10.26
2023-01-06T19:56:55.647Z,10.21
2023-01-06T19:59:26.434Z,10.24
2023-01-06T20:01:58.280Z,10.24
2023-01-06T20:04:27.110Z,10.24
2023-01-06T20:06:55.993Z,10.27
2023-01-06T20:09:23.577Z,10.28
2023-01-06T20:11:51.742Z,10.32
2023-01-06T20:14:19.823Z,10.38
2023-01-06T20:16:49.133Z,10.32
2023-01-06T20:19:17.530Z,10.35
2023-01-06T20:21:46.030Z,10.39
2023-01-06T20:24:14.248Z,10.42
2023-01-06T20:26:41.842Z,10.41
2023-01-06T20:29:09.410Z,10.44
2023-01-06T20:31:36.979Z,10.48
2023-01-06T20:34:05.898Z,10.48
2023-01-06T20:36:33.445Z,10.50
2023-01-06T20:39:02.334Z,10.54
2023-01-06T20:41:30.004Z,10.59
2023-01-06T20:43:58.360Z,10.58
2023-01-06T20:46:26.352Z,10.58
2023-01-06T20:48:53.924Z,10.62
2023-01-06T20:51:22.841Z,10.59
2023-01-06T20:53:50.388Z,10.59
2023-01-06T20:56:18.793Z,10.59
2023-01-06T20:58:47.302Z,10.66
2023-01-06T21:01:14.857Z,10.60
2023-01-06T21:03:42.477Z,10.59
2023-01-06T21:06:10.276Z,10.73
2023-01-06T21:08:39.119Z,10.66
2023-01-06T21:11:06.756Z,10.63
2023-01-06T21:13:34.237Z,10.65
2023-01-06T21:16:02.994Z,10.65
2023-01-06T21:18:31.439Z,10.69
2023-01-06T21:20:59.081Z,10.69
2023-01-06T21:23:27.865Z,10.66
2023-01-06T21:25:56.771Z,10.68
2023-01-06T21:28:24.332Z,10.69
2023-01-06T21:30:51.878Z,10.69
2023-01-06T21:33:21.570Z,10.73
2023-01-06T21:35:49.377Z,10.68
2023-01-06T21:38:17.225Z,10.72
2023-01-06T21:40:44.808Z,10.73
2023-01-06T21:43:12.736Z,10.70
2023-01-06T21:45:40.959Z,10.66
2023-01-06T21:48:09.041Z,10.74
2023-01-06T21:50:38.184Z,10.76
2023-01-06T21:53:07.321Z,10.68
2023-01-06T21:55:34.876Z,10.70
2023-01-06T21:58:02.543Z,10.68
2023-01-06T22:00:31.495Z,10.67
2023-01-06T22:02:59.397Z,10.68
2023-01-06T22:05:27.657Z,10.69
2023-01-06T22:07:55.209Z,10.69
2023-01-06T22:10:23.903Z,10.72
2023-01-06T22:12:52.711Z,10.71
2023-01-06T22:15:20.969Z,10.67
2023-01-06T22:17:50.632Z,10.67
2023-01-06T22:20:18.514Z,10.68
2023-01-06T22:22:47.115Z,10.69
2023-01-06T22:25:14.897Z,10.71
2023-01-06T22:27:42.463Z,10.70
2023-01-06T22:30:10.865Z,10.69
2023-01-06T22:32:44.676Z,10.71
2023-01-06T22:35:14.144Z,10.70
2023-01-06T22:37:41.680Z,10.70
2023-01-06T22:40:10.205Z,10.71
2023-01-06T22:42:41.505Z,10.75
2023-01-06T22:45:13.026Z,10.74
2023-01-06T22:47:40.591Z,10.71
2023-01-06T22:50:08.913Z,10.70
2023-01-06T22:52:37.799Z,10.66
2023-01-06T22:55:05.797Z,10.68
2023-01-06T22:57:33.369Z,10.67
2023-01-06T23:00:00.927Z,10.65
2023-01-06T23:02:29.484Z,10.62
2023-01-06T23:04:58.131Z,10.62
2023-01-06T23:07:25.659Z,10.62
2023-01-06T23:09:54.850Z,10.62
2023-01-06T23:12:22.411Z,10.62
2023-01-06T23:14:50.032Z,10.63
2023-01-06T23:17:17.528Z,10.64
2023-01-06T23:19:45.061Z,10.62
2023-01-06T23:22:12.773Z,10.65
2023-01-06T23:24:40.250Z,10.66
2023-01-06T23:27:11.101Z,10.67
2023-01-06T23:29:38.669Z,10.64
2023-01-06T23:32:06.200Z,10.64
2023-01-06T23:34:33.729Z,10.67
2023-01-06T23:37:01.448Z,10.66
2023-01-06T23:39:29.000Z,10.67
2023-01-06T23:41:56.541Z,10.68
2023-01-06T23:44:25.482Z,10.65
2023-01-06T23:46:52.968Z,10.67
2023-01-06T23:49:20.469Z,10.66
2023-01-06T23:51:48.031Z,10.63
2023-01-06T23:54:15.760Z,10.64
2023-01-06T23:56:43.994Z,10.69
2023-01-06T23:59:12.772Z,10.69
